Oxford, Arkansas
Current Conditions -  °F | °C
As of 9:53 AM on Monday 26 Jan 2015 (Local Time) from KBPK Reporting Station
Few Clouds Few Clouds  
Wind Chill: 35°   Ceiling: Unl
Heat Index: 39°   Visibility: 9mi
Dew Point: 29°   Wind: 6mph
Humidity: 67%   Direction: 280°W
Pressure: 30.09"   Gusts: NA
Location:  36.22°N, 91.93°W
Report Text: KBPK 261553Z AUTO 28005KT 9SM FEW020 04/M02 A3009 RMK AO2 SLP195 T00391017
Loading
Personal Weather Stations






























Interactive Weather Map New forecast layout! Learn more

10-Day Weather Forecast

Advertisements
Track Severe Weather on mobile